Latest Weather Observations for Cape Moreton

IDQ60901

Issued at 11:35 pm EST Sunday 23 November 2014 (issued every 10 minutes, with the page automatically refreshed every 10 minutes)

About weather observations | Map of Brisbane area stations | Latest observations for Brisbane area | Other Formats
Station Details ID: 040043 Name: CAPE MORETON LIGHTHOUSE Lat: -27.03 Lon: 153.47 Height: 99.9 m
Data from the previous 72 hours. | See also: Recent months at Cape Moreton
Date/Time
EST
Tmp

°C
App
Tmp
°C
Dew
Point
°C
Rel
Hum
%
Delta-T

°C
Wind Press
QNH
hPa
Press
MSL
hPa
Rain
since
9 am
mm
Dir
 
Spd
km/h
Gust
km/h
Spd
kts
Gust
kts
23/11:30pm 23.7 22.5 20.8 84 1.9 N 28 37 15 20 1017.6 1017.2 0.0
23/11:00pm 23.7 21.4 20.6 83 2.0 N 33 41 18 22 1017.4 1017.0 0.0
23/10:30pm 23.8 22.4 21.1 85 1.8 N 30 39 16 21 1017.5 1017.1 0.0
23/10:00pm 23.7 21.8 21.0 85 1.8 N 32 46 17 25 1017.4 1017.0 0.0
23/09:30pm 23.7 21.6 21.0 85 1.8 N 33 44 18 24 1017.3 1016.9 0.0
23/09:00pm 23.8 21.7 20.9 84 1.9 N 33 43 18 23 1017.1 1016.7 0.0
23/08:30pm 23.8 21.8 21.1 85 1.8 N 33 43 18 23 1016.9 1016.5 0.0
23/08:00pm 24.1 22.1 21.2 84 1.9 N 33 39 18 21 1016.7 1016.3 0.0
23/07:30pm 23.9 22.3 20.8 83 2.0 N 30 41 16 22 1016.1 1015.7 0.0
23/07:00pm 24.0 22.0 20.7 82 2.2 N 32 41 17 22 1015.8 1015.4 0.0
23/06:30pm 23.9 21.5 20.4 81 2.3 N 33 41 18 22 1015.2 1014.8 0.0
23/06:00pm 23.9 21.4 20.2 80 2.4 NNE 33 44 18 24 1014.7 1014.3 0.0
23/05:30pm 24.2 21.7 20.1 78 2.7 NNE 33 43 18 23 1014.4 1013.9 0.0
23/05:00pm 24.6 22.4 20.3 77 2.8 NNE 32 41 17 22 1014.7 1014.3 0.0
23/04:30pm 24.8 21.9 20.1 75 3.1 NNE 35 43 19 23 1014.5 1014.1 0.0
23/04:00pm 25.1 22.7 19.9 73 3.4 NNE 32 43 17 23 1014.7 1014.3 0.0
23/03:30pm 25.5 23.1 19.9 71 3.6 NNE 32 41 17 22 1015.0 1014.6 0.0
23/03:00pm 25.8 23.8 19.9 70 3.8 NNE 30 39 16 21 1015.3 1014.9 0.0
23/02:30pm 25.9 23.3 19.5 68 4.1 NNE 32 41 17 22 1015.4 1015.0 0.0
23/02:00pm 25.8 23.0 19.4 67 4.1 NNE 33 41 18 22 1015.8 1015.4 0.0
23/01:30pm 26.1 23.3 19.5 67 4.3 NNE 33 41 18 22 1016.1 1015.7 0.0
23/01:00pm 26.6 24.0 19.5 65 4.6 NNE 32 41 17 22 1016.6 1016.2 0.0
23/12:30pm 27.0 25.4 20.1 66 4.5 NNE 28 35 15 19 1017.2 1016.8 0.0
23/12:00pm 27.0 25.9 20.3 66 4.4 NNE 26 33 14 18 1017.8 1017.4 0.0
23/11:30am 27.3 27.4 20.4 66 4.5 N 20 30 11 16 1018.2 1017.8 0.0
23/11:00am 26.8 26.7 19.9 66 4.5 N 20 28 11 15 1018.5 1018.1 0.0
23/10:30am 26.9 27.0 20.3 67 4.3 N 20 30 11 16 1018.4 1018.0 0.0
23/10:00am 25.9 25.2 20.2 71 3.7 N 24 32 13 17 1018.9 1018.5 0.0
23/09:30am 25.3 23.8 20.3 74 3.3 N 28 32 15 17 1019.0 1018.6 0.0
23/09:00am 25.3 24.1 20.1 73 3.4 N 26 32 14 17 1018.9 1018.5 0.0
23/08:30am 24.9 23.9 20.4 76 2.9 N 26 33 14 18 1018.8 1018.4 0.0
23/08:00am 24.4 22.6 20.3 78 2.7 N 30 37 16 20 1018.7 1018.3 0.0
23/07:30am 24.2 21.8 20.3 79 2.5 N 33 39 18 21 1018.5 1018.1 0.0
23/07:00am 24.1 21.4 20.4 80 2.4 N 35 43 19 23 1018.2 1017.8 0.0
23/06:30am 23.9 21.4 20.8 83 2.0 N 35 43 19 23 1017.6 1017.2 0.0
23/06:00am 23.9 22.8 21.0 84 1.9 N 28 35 15 19 1017.3 1016.9 0.0
23/05:30am 23.6 21.5 20.9 85 1.8 N 33 39 18 21 1017.2 1016.8 0.0
23/05:00am 23.6 22.3 21.3 87 1.5 N 30 39 16 21 1016.8 1016.4 0.0
23/04:30am 23.5 21.6 21.4 88 1.4 N 33 43 18 23 1016.0 1015.6 0.0
23/04:00am 23.6 21.3 21.3 87 1.5 N 35 41 19 22 1015.7 1015.3 0.0
23/03:30am 23.5 21.7 21.2 87 1.5 N 32 39 17 21 1015.6 1015.2 0.0
23/03:00am 23.5 21.2 21.2 87 1.5 N 35 44 19 24 1015.3 1014.9 0.0
23/02:30am 23.5 21.0 21.6 89 1.3 N 37 48 20 26 1015.2 1014.8 0.0
23/02:00am 23.6 20.8 21.7 89 1.3 N 39 48 21 26 1015.3 1014.9 0.0
23/01:30am 23.6 19.9 21.5 88 1.4 N 43 52 23 28 1015.1 1014.7 0.0
23/01:00am 23.6 20.8 21.7 89 1.3 N 39 46 21 25 1015.4 1015.0 0.0
23/12:30am 23.5 20.2 21.6 89 1.3 N 41 50 22 27 1015.8 1015.4 0.0
23/12:00am 23.6 20.8 21.7 89 1.3 N 39 50 21 27 1016.0 1015.6 0.0
 
Date/Time
EST
Tmp

°C
App
Tmp
°C
Dew
Point
°C
Rel
Hum
%
Delta-T

°C
Wind Press
QNH
hPa
Press
MSL
hPa
Rain
since
9 am
mm
Dir
 
Spd
km/h
Gust
km/h
Spd
kts
Gust
kts
22/11:30pm 23.8 20.7 21.9 89 1.3 N 41 50 22 27 1016.2 1015.8 0.0
22/11:00pm 23.7 21.4 22.0 90 1.1 N 37 46 20 25 1016.1 1015.7 0.0
22/10:30pm 23.9 21.3 22.2 90 1.1 N 39 50 21 27 1015.8 1015.4 0.0
22/10:00pm 23.9 21.2 22.0 89 1.3 N 39 48 21 26 1015.9 1015.5 0.0
22/09:30pm 24.0 22.0 21.9 88 1.4 N 35 48 19 26 1016.0 1015.6 0.0
22/09:00pm 24.0 21.5 21.7 87 1.5 N 37 46 20 25 1016.0 1015.6 0.0
22/08:30pm 24.0 22.4 21.5 86 1.7 N 32 43 17 23 1015.6 1015.2 0.0
22/08:00pm 23.9 22.0 21.4 86 1.7 N 33 46 18 25 1015.0 1014.6 0.0
22/07:30pm 24.2 21.5 21.3 84 1.9 N 37 48 20 26 1014.5 1014.1 0.0
22/07:00pm 24.1 21.8 21.2 84 1.9 N 35 48 19 26 1014.1 1013.6 0.0
22/06:30pm 24.2 21.9 21.3 84 1.9 N 35 46 19 25 1013.5 1013.0 0.0
22/06:00pm 24.2 21.4 21.1 83 2.0 N 37 46 20 25 1013.3 1012.8 0.0
22/05:30pm 24.3 21.6 21.2 83 2.0 N 37 50 20 27 1013.1 1012.6 0.0
22/05:00pm 24.7 21.2 21.2 81 2.3 N 41 52 22 28 1012.4 1012.0 0.0
22/04:30pm 24.9 21.8 21.2 80 2.4 N 39 52 21 28 1012.2 1011.8 0.0
22/04:00pm 25.1 22.0 21.2 79 2.6 N 39 52 21 28 1012.1 1011.7 0.0
22/03:30pm 25.1 21.2 21.4 80 2.5 N 44 56 24 30 1012.1 1011.7 0.0
22/03:00pm 25.3 22.5 21.8 81 2.3 N 39 52 21 28 1012.4 1012.0 0.0
22/02:30pm 25.6 22.9 21.9 80 2.5 N 39 48 21 26 1013.0 1012.5 0.0
22/02:00pm 25.7 22.8 21.6 78 2.7 N 39 48 21 26 1013.4 1012.9 0.0
22/01:30pm 26.0 23.6 21.9 78 2.7 N 37 46 20 25 1013.9 1013.4 0.0
22/01:00pm 26.2 24.2 21.8 77 2.9 N 35 46 19 25 1014.0 1013.5 0.0
22/12:30pm 26.3 24.2 21.7 76 3.1 N 35 44 19 24 1014.6 1014.2 0.0
22/12:00pm 26.3 24.8 21.7 76 3.1 N 32 43 17 23 1014.9 1014.5 0.0
22/11:30am 26.3 24.9 21.9 77 3.0 N 32 44 17 24 1015.0 1014.6 0.0
22/11:00am 26.0 24.5 22.1 79 2.6 N 33 43 18 23 1015.4 1015.0 0.0
22/10:30am 25.9 23.8 22.4 81 2.4 N 37 46 20 25 1015.7 1015.3 0.0
22/10:00am 25.6 23.8 22.3 82 2.2 N 35 46 19 25 1016.0 1015.6 0.0
22/09:30am 25.5 23.4 22.4 83 2.1 N 37 44 20 24 1016.1 1015.7 0.0
22/09:00am 24.7 23.3 22.2 86 1.7 N 33 43 18 23 1016.0 1015.6 0.0
22/08:30am 25.2 24.2 22.7 86 1.7 N 32 41 17 22 1016.0 1015.6 0.0
22/08:00am 24.8 23.8 22.7 88 1.4 N 32 43 17 23 1016.0 1015.6 0.0
22/07:30am 24.4 22.5 22.7 90 1.1 N 37 44 20 24 1015.6 1015.2 0.0
22/07:00am 24.0 22.7 22.4 91 1.1 N 33 43 18 23 1015.5 1015.1 0.0
22/06:30am 23.8 22.5 22.4 92 0.9 N 33 44 18 24 1015.4 1015.0 0.0
22/06:00am 23.7 22.4 22.5 93 0.8 N 33 41 18 22 1015.2 1014.8 0.0
22/05:30am 23.7 22.4 22.5 93 0.8 N 33 41 18 22 1014.9 1014.5 0.0
22/05:00am 23.6 21.9 22.4 93 0.8 NNW 35 44 19 24 1014.6 1014.2 0.0
22/04:30am 23.6 21.1 22.4 93 0.8 N 39 46 21 25 1014.0 1013.5 0.0
22/04:00am 23.6 21.1 22.4 93 0.8 N 39 48 21 26 1013.7 1013.2 0.0
22/03:30am 23.6 20.3 22.2 92 0.9 N 43 54 23 29 1013.3 1012.8 0.0
22/03:00am 23.5 20.0 22.3 93 0.8 N 44 56 24 30 1013.0 1012.5 0.0
22/02:30am 23.6 19.8 22.4 93 0.8 N 46 56 25 30 1012.7 1012.2 0.0
22/02:00am 23.6 20.2 22.4 93 0.8 N 44 54 24 29 1012.5 1012.1 0.0
22/01:30am 23.5 20.2 22.3 93 0.8 N 43 52 23 28 1013.1 1012.6 0.0
22/01:00am 23.6 19.7 22.2 92 0.9 N 46 56 25 30 1013.2 1012.7 0.0
22/12:30am 23.6 19.8 22.4 93 0.8 N 46 57 25 31 1013.1 1012.6 0.0
22/12:00am 23.6 20.5 22.6 94 0.7 N 43 56 23 30 1013.7 1013.2 0.0
 
Date/Time
EST
Tmp

°C
App
Tmp
°C
Dew
Point
°C
Rel
Hum
%
Delta-T

°C
Wind Press
QNH
hPa
Press
MSL
hPa
Rain
since
9 am
mm
Dir
 
Spd
km/h
Gust
km/h
Spd
kts
Gust
kts
21/11:30pm 23.6 20.3 22.6 94 0.7 N 44 54 24 29 1014.0 1013.5 0.0
21/11:00pm 23.6 20.3 22.6 94 0.7 N 44 54 24 29 1014.2 1013.7 0.0
21/10:30pm 23.7 20.4 22.7 94 0.7 N 44 56 24 30 1014.2 1013.7 0.0
21/10:00pm 23.8 20.8 22.8 94 0.7 N 43 50 23 27 1014.7 1014.3 0.0
21/09:30pm 23.8 21.1 22.6 93 0.8 N 41 52 22 28 1014.4 1013.9 0.0
21/09:00pm 23.8 21.3 22.4 92 0.9 N 39 50 21 27 1013.8 1013.3 0.0
21/08:30pm 23.9 21.1 22.5 92 0.9 N 41 54 22 29 1013.3 1012.8 0.0
21/08:00pm 24.0 21.1 22.3 90 1.1 N 41 54 22 29 1013.4 1012.9 0.0
21/07:30pm 24.0 21.5 22.3 90 1.1 N 39 54 21 29 1013.2 1012.7 0.0
21/07:00pm 24.0 20.7 22.3 90 1.1 N 43 54 23 29 1012.7 1012.2 0.0
21/06:30pm 23.9 21.4 22.3 91 1.1 N 39 54 21 29 1012.5 1012.1 0.0
21/06:00pm 23.9 20.4 22.3 91 1.1 N 44 57 24 31 1012.0 1011.6 0.0
21/05:30pm 24.1 20.9 22.5 91 1.1 N 43 57 23 31 1012.0 1011.6 0.0
21/05:00pm 24.2 20.9 22.3 89 1.3 N 43 54 23 29 1011.9 1011.5 0.0
21/04:30pm 24.4 21.1 22.3 88 1.4 N 43 52 23 28 1011.9 1011.5 0.0
21/04:00pm 24.7 21.5 22.4 87 1.5 N 43 50 23 27 1011.9 1011.5 0.0
21/03:30pm 25.0 22.6 22.5 86 1.7 N 39 48 21 26 1012.0 1011.6 0.0
21/03:00pm 25.2 22.8 22.5 85 1.8 N 39 46 21 25 1012.3 1011.9 0.0
21/02:30pm 25.0 22.1 22.3 85 1.8 N 41 50 22 27 1012.4 1012.0 0.0
21/02:00pm 25.7 24.1 22.6 83 2.1 NNE 35 48 19 26 1012.9 1012.4 0.0
21/01:30pm 26.1 25.0 22.4 80 2.5 NNE 32 43 17 23 1013.4 1012.9 0.0
21/01:00pm 26.1 24.7 22.2 79 2.6 N 33 41 18 22 1013.9 1013.4 0.0
21/12:30pm 26.1 24.6 22.0 78 2.8 N 33 41 18 22 1014.4 1013.9 0.0
21/12:00pm 26.2 25.4 22.3 79 2.6 N 30 37 16 20 1014.8 1014.4 0.0
21/11:30am 26.3 25.8 22.2 78 2.8 N 28 37 15 20 1015.3 1014.9 0.0
21/11:00am 26.4 26.3 22.3 78 2.8 N 26 37 14 20 1015.7 1015.3 0.0
21/10:30am 26.4 26.7 22.3 78 2.8 N 24 33 13 18 1016.0 1015.6 0.0
21/10:00am 25.7 25.2 22.2 81 2.4 N 28 37 15 20 1016.2 1015.8 0.0
21/09:30am 25.5 24.5 22.0 81 2.3 N 30 39 16 21 1016.4 1016.0 0.0
21/09:00am 25.1 23.9 21.6 81 2.3 N 30 39 16 21 1016.6 1016.2 0.0
21/08:30am 25.2 24.9 21.9 82 2.2 N 26 33 14 18 1016.6 1016.2 0.0
21/08:00am 24.6 23.5 21.7 84 1.9 N 30 37 16 20 1016.9 1016.5 0.0
21/07:30am 24.0 22.9 21.7 87 1.5 N 30 37 16 20 1017.0 1016.6 0.0
21/07:00am 24.1 22.5 21.6 86 1.7 N 32 37 17 20 1016.8 1016.4 0.0
21/06:30am 23.8 22.9 21.5 87 1.5 N 28 37 15 20 1016.2 1015.8 0.0
21/06:00am 23.6 23.3 21.9 90 1.1 N 26 35 14 19 1016.0 1015.6 0.0
21/05:30am 23.0 23.0 21.6 92 0.9 N 24 33 13 18 1016.0 1015.6 0.0
21/05:00am 23.1 23.5 21.7 92 0.9 N 22 30 12 16 1015.8 1015.4 0.0
21/04:30am 23.0 22.5 21.4 91 1.1 N 26 33 14 18 1015.5 1015.1 0.0
21/04:00am 22.9 22.0 21.5 92 0.9 N 28 35 15 19 1015.1 1014.7 0.0
21/03:30am 23.0 22.2 21.6 92 0.9 N 28 35 15 19 1015.1 1014.7 0.0
21/03:00am 22.9 22.0 21.5 92 0.9 N 28 37 15 20 1015.2 1014.8 0.0
21/02:30am 23.1 22.2 21.5 91 1.1 N 28 37 15 20 1015.2 1014.8 0.0
21/02:00am 23.0 21.3 21.3 90 1.1 N 32 39 17 21 1015.1 1014.7 0.0
21/01:30am 23.0 21.0 21.1 89 1.2 N 33 41 18 22 1015.3 1014.9 0.0
21/01:00am 23.0 21.2 21.1 89 1.2 N 32 39 17 21 1015.5 1015.1 0.0
21/12:30am 22.9 22.3 21.2 90 1.1 N 26 33 14 18 1016.2 1015.8 0.0
21/12:00am 22.8 22.2 21.3 91 1.0 N 26 33 14 18 1016.4 1016.0 0.0

Latest Capital City Observations: Canberra | Sydney | Melbourne | Brisbane | Adelaide | Perth | Hobart | Darwin

Other Formats:

Comma delimited format used in spreadsheet applications
http://www.bom.gov.au/fwo/IDQ60901/IDQ60901.94594.axf

JavaScript Object Notation format (JSON) in row-major order
http://www.bom.gov.au/fwo/IDQ60901/IDQ60901.94594.json